sensor_id;sensor_type;location;lat;lon;timestamp;temperature;humidity
78028;DHT22;74605;45.864;11.474;2024-03-07T00:00:23;6.80;79.80
78028;DHT22;74605;45.864;11.474;2024-03-07T00:02:50;6.70;79.80
78028;DHT22;74605;45.864;11.474;2024-03-07T00:05:18;6.60;79.90
78028;DHT22;74605;45.864;11.474;2024-03-07T00:07:44;6.80;80.10
78028;DHT22;74605;45.864;11.474;2024-03-07T00:10:11;6.90;80.00
78028;DHT22;74605;45.864;11.474;2024-03-07T00:12:39;6.70;79.50
78028;DHT22;74605;45.864;11.474;2024-03-07T00:15:11;6.80;79.70
78028;DHT22;74605;45.864;11.474;2024-03-07T00:17:37;6.70;79.80
78028;DHT22;74605;45.864;11.474;2024-03-07T00:20:04;6.90;80.30
78028;DHT22;74605;45.864;11.474;2024-03-07T00:22:35;7.00;80.50
78028;DHT22;74605;45.864;11.474;2024-03-07T00:25:01;7.10;80.30
78028;DHT22;74605;45.864;11.474;2024-03-07T00:27:27;7.10;80.10
78028;DHT22;74605;45.864;11.474;2024-03-07T00:29:54;7.00;79.60
78028;DHT22;74605;45.864;11.474;2024-03-07T00:32:20;6.90;79.50
78028;DHT22;74605;45.864;11.474;2024-03-07T00:34:47;6.90;79.50
78028;DHT22;74605;45.864;11.474;2024-03-07T00:37:14;6.80;79.40
78028;DHT22;74605;45.864;11.474;2024-03-07T00:39:40;6.90;79.60
78028;DHT22;74605;45.864;11.474;2024-03-07T00:42:06;6.60;79.60
78028;DHT22;74605;45.864;11.474;2024-03-07T00:44:32;6.70;80.50
78028;DHT22;74605;45.864;11.474;2024-03-07T00:46:58;6.80;80.50
78028;DHT22;74605;45.864;11.474;2024-03-07T00:49:24;6.90;80.20
78028;DHT22;74605;45.864;11.474;2024-03-07T00:51:51;6.80;80.20
78028;DHT22;74605;45.864;11.474;2024-03-07T00:54:17;6.80;80.50
78028;DHT22;74605;45.864;11.474;2024-03-07T00:56:43;6.80;80.40
78028;DHT22;74605;45.864;11.474;2024-03-07T00:59:09;6.80;80.50
78028;DHT22;74605;45.864;11.474;2024-03-07T01:01:35;6.80;80.40
78028;DHT22;74605;45.864;11.474;2024-03-07T01:04:03;6.70;80.20
78028;DHT22;74605;45.864;11.474;2024-03-07T01:06:29;6.70;79.80
78028;DHT22;74605;45.864;11.474;2024-03-07T01:08:55;6.70;80.30
78028;DHT22;74605;45.864;11.474;2024-03-07T01:11:21;6.80;80.00
78028;DHT22;74605;45.864;11.474;2024-03-07T01:13:47;6.90;80.10
78028;DHT22;74605;45.864;11.474;2024-03-07T01:16:13;7.00;80.00
78028;DHT22;74605;45.864;11.474;2024-03-07T01:18:39;6.70;80.10
78028;DHT22;74605;45.864;11.474;2024-03-07T01:21:06;6.80;79.90
78028;DHT22;74605;45.864;11.474;2024-03-07T01:23:32;6.90;79.90
78028;DHT22;74605;45.864;11.474;2024-03-07T01:25:58;7.00;80.00
78028;DHT22;74605;45.864;11.474;2024-03-07T01:28:25;6.90;80.30
78028;DHT22;74605;45.864;11.474;2024-03-07T01:30:52;6.90;80.20
78028;DHT22;74605;45.864;11.474;2024-03-07T01:33:19;6.70;79.50
78028;DHT22;74605;45.864;11.474;2024-03-07T01:35:45;6.60;80.30
78028;DHT22;74605;45.864;11.474;2024-03-07T01:38:11;6.40;80.20
78028;DHT22;74605;45.864;11.474;2024-03-07T01:40:42;6.30;80.60
78028;DHT22;74605;45.864;11.474;2024-03-07T01:43:08;6.50;80.80
78028;DHT22;74605;45.864;11.474;2024-03-07T01:45:35;6.80;80.60
78028;DHT22;74605;45.864;11.474;2024-03-07T01:48:04;6.50;80.30
78028;DHT22;74605;45.864;11.474;2024-03-07T01:50:30;6.60;80.60
78028;DHT22;74605;45.864;11.474;2024-03-07T01:52:56;6.70;80.60
78028;DHT22;74605;45.864;11.474;2024-03-07T01:55:22;6.80;80.50
78028;DHT22;74605;45.864;11.474;2024-03-07T01:57:49;6.80;80.40
78028;DHT22;74605;45.864;11.474;2024-03-07T02:00:15;6.70;80.50
78028;DHT22;74605;45.864;11.474;2024-03-07T02:02:45;6.80;80.60
78028;DHT22;74605;45.864;11.474;2024-03-07T02:05:11;6.90;80.40
78028;DHT22;74605;45.864;11.474;2024-03-07T02:07:37;6.80;80.30
78028;DHT22;74605;45.864;11.474;2024-03-07T02:10:05;7.00;80.20
78028;DHT22;74605;45.864;11.474;2024-03-07T02:12:32;6.90;79.90
78028;DHT22;74605;45.864;11.474;2024-03-07T02:14:58;6.80;80.20
78028;DHT22;74605;45.864;11.474;2024-03-07T02:17:28;6.80;80.50
78028;DHT22;74605;45.864;11.474;2024-03-07T02:19:54;6.80;80.50
78028;DHT22;74605;45.864;11.474;2024-03-07T02:22:19;6.90;80.30
78028;DHT22;74605;45.864;11.474;2024-03-07T02:24:46;6.70;80.20
78028;DHT22;74605;45.864;11.474;2024-03-07T02:27:13;6.70;80.30
78028;DHT22;74605;45.864;11.474;2024-03-07T02:29:40;6.80;80.50
78028;DHT22;74605;45.864;11.474;2024-03-07T02:32:07;6.90;80.30
78028;DHT22;74605;45.864;11.474;2024-03-07T02:34:33;6.80;80.30
78028;DHT22;74605;45.864;11.474;2024-03-07T02:36:59;6.40;80.00
78028;DHT22;74605;45.864;11.474;2024-03-07T02:39:25;6.60;80.50
78028;DHT22;74605;45.864;11.474;2024-03-07T02:41:52;6.70;80.50
78028;DHT22;74605;45.864;11.474;2024-03-07T02:44:18;6.80;80.10
78028;DHT22;74605;45.864;11.474;2024-03-07T02:46:44;6.80;80.40
78028;DHT22;74605;45.864;11.474;2024-03-07T02:49:10;6.70;80.40
78028;DHT22;74605;45.864;11.474;2024-03-07T02:51:36;6.80;79.90
78028;DHT22;74605;45.864;11.474;2024-03-07T02:54:02;6.90;80.30
78028;DHT22;74605;45.864;11.474;2024-03-07T02:56:31;6.60;79.70
78028;DHT22;74605;45.864;11.474;2024-03-07T02:58:57;6.40;80.40
78028;DHT22;74605;45.864;11.474;2024-03-07T03:01:23;6.50;80.60
78028;DHT22;74605;45.864;11.474;2024-03-07T03:03:49;6.40;80.60
78028;DHT22;74605;45.864;11.474;2024-03-07T03:06:15;6.20;80.70
78028;DHT22;74605;45.864;11.474;2024-03-07T03:08:40;6.30;80.90
78028;DHT22;74605;45.864;11.474;2024-03-07T03:11:06;6.50;81.00
78028;DHT22;74605;45.864;11.474;2024-03-07T03:13:37;6.40;80.90
78028;DHT22;74605;45.864;11.474;2024-03-07T03:16:04;6.40;80.90
78028;DHT22;74605;45.864;11.474;2024-03-07T03:18:33;6.50;81.20
78028;DHT22;74605;45.864;11.474;2024-03-07T03:21:02;6.60;80.70
78028;DHT22;74605;45.864;11.474;2024-03-07T03:23:29;6.70;80.80
78028;DHT22;74605;45.864;11.474;2024-03-07T03:25:55;6.70;80.80
78028;DHT22;74605;45.864;11.474;2024-03-07T03:28:21;6.80;80.50
78028;DHT22;74605;45.864;11.474;2024-03-07T03:30:49;6.90;80.50
78028;DHT22;74605;45.864;11.474;2024-03-07T03:33:15;6.90;80.10
78028;DHT22;74605;45.864;11.474;2024-03-07T03:35:41;6.80;80.00
78028;DHT22;74605;45.864;11.474;2024-03-07T03:38:08;6.50;80.00
78028;DHT22;74605;45.864;11.474;2024-03-07T03:40:35;6.40;80.60
78028;DHT22;74605;45.864;11.474;2024-03-07T03:43:01;6.60;80.80
78028;DHT22;74605;45.864;11.474;2024-03-07T03:45:27;6.20;80.70
78028;DHT22;74605;45.864;11.474;2024-03-07T03:47:53;6.40;80.80
78028;DHT22;74605;45.864;11.474;2024-03-07T03:50:20;6.40;80.70
78028;DHT22;74605;45.864;11.474;2024-03-07T03:52:49;6.60;81.00
78028;DHT22;74605;45.864;11.474;2024-03-07T03:55:15;6.50;80.80
78028;DHT22;74605;45.864;11.474;2024-03-07T03:57:43;6.50;80.80
78028;DHT22;74605;45.864;11.474;2024-03-07T04:00:10;6.40;80.70
78028;DHT22;74605;45.864;11.474;2024-03-07T04:02:45;6.10;80.90
78028;DHT22;74605;45.864;11.474;2024-03-07T04:05:16;6.40;81.00
78028;DHT22;74605;45.864;11.474;2024-03-07T04:07:42;6.40;81.10
78028;DHT22;74605;45.864;11.474;2024-03-07T04:10:10;6.50;80.90
78028;DHT22;74605;45.864;11.474;2024-03-07T04:12:37;6.60;80.80
78028;DHT22;74605;45.864;11.474;2024-03-07T04:15:08;6.50;81.00
78028;DHT22;74605;45.864;11.474;2024-03-07T04:17:35;6.60;80.90
78028;DHT22;74605;45.864;11.474;2024-03-07T04:20:04;6.60;80.70
78028;DHT22;74605;45.864;11.474;2024-03-07T04:22:33;6.40;81.10
78028;DHT22;74605;45.864;11.474;2024-03-07T04:25:03;6.70;80.90
78028;DHT22;74605;45.864;11.474;2024-03-07T04:27:36;6.00;81.80
78028;DHT22;74605;45.864;11.474;2024-03-07T04:30:05;6.30;82.00
78028;DHT22;74605;45.864;11.474;2024-03-07T04:32:32;6.50;81.50
78028;DHT22;74605;45.864;11.474;2024-03-07T04:35:00;6.50;81.50
78028;DHT22;74605;45.864;11.474;2024-03-07T04:37:26;6.50;81.20
78028;DHT22;74605;45.864;11.474;2024-03-07T04:39:55;6.60;81.30
78028;DHT22;74605;45.864;11.474;2024-03-07T04:42:21;6.50;80.80
78028;DHT22;74605;45.864;11.474;2024-03-07T04:44:47;6.40;80.90
78028;DHT22;74605;45.864;11.474;2024-03-07T04:47:13;6.30;81.50
78028;DHT22;74605;45.864;11.474;2024-03-07T04:49:39;6.60;81.60
78028;DHT22;74605;45.864;11.474;2024-03-07T04:52:06;6.70;81.30
78028;DHT22;74605;45.864;11.474;2024-03-07T04:54:32;6.50;81.00
78028;DHT22;74605;45.864;11.474;2024-03-07T04:56:59;6.50;81.30
78028;DHT22;74605;45.864;11.474;2024-03-07T04:59:25;6.60;81.40
78028;DHT22;74605;45.864;11.474;2024-03-07T05:01:51;6.60;81.10
78028;DHT22;74605;45.864;11.474;2024-03-07T05:04:18;6.80;80.90
78028;DHT22;74605;45.864;11.474;2024-03-07T05:06:44;6.50;80.30
78028;DHT22;74605;45.864;11.474;2024-03-07T05:09:13;6.30;81.80
78028;DHT22;74605;45.864;11.474;2024-03-07T05:11:49;6.60;81.70
78028;DHT22;74605;45.864;11.474;2024-03-07T05:14:18;6.50;81.50
78028;DHT22;74605;45.864;11.474;2024-03-07T05:16:44;6.60;81.30
78028;DHT22;74605;45.864;11.474;2024-03-07T05:19:10;6.60;81.40
78028;DHT22;74605;45.864;11.474;2024-03-07T05:21:36;6.70;80.80
78028;DHT22;74605;45.864;11.474;2024-03-07T05:24:08;6.50;80.60
78028;DHT22;74605;45.864;11.474;2024-03-07T05:26:37;6.60;80.90
78028;DHT22;74605;45.864;11.474;2024-03-07T05:29:09;6.50;81.20
78028;DHT22;74605;45.864;11.474;2024-03-07T05:31:38;6.80;81.00
78028;DHT22;74605;45.864;11.474;2024-03-07T05:34:09;6.50;81.20
78028;DHT22;74605;45.864;11.474;2024-03-07T05:36:36;6.40;81.20
78028;DHT22;74605;45.864;11.474;2024-03-07T05:39:10;6.50;81.20
78028;DHT22;74605;45.864;11.474;2024-03-07T05:41:38;6.60;81.10
78028;DHT22;74605;45.864;11.474;2024-03-07T05:44:04;6.40;80.90
78028;DHT22;74605;45.864;11.474;2024-03-07T05:46:37;6.40;81.00
78028;DHT22;74605;45.864;11.474;2024-03-07T05:49:07;6.60;81.20
78028;DHT22;74605;45.864;11.474;2024-03-07T05:51:34;6.60;81.20
78028;DHT22;74605;45.864;11.474;2024-03-07T05:54:00;6.60;80.90
78028;DHT22;74605;45.864;11.474;2024-03-07T05:56:26;6.50;81.00
78028;DHT22;74605;45.864;11.474;2024-03-07T05:58:53;6.60;81.10
78028;DHT22;74605;45.864;11.474;2024-03-07T06:01:20;6.60;81.30
78028;DHT22;74605;45.864;11.474;2024-03-07T06:03:46;6.60;81.20
78028;DHT22;74605;45.864;11.474;2024-03-07T06:06:14;6.60;81.20
78028;DHT22;74605;45.864;11.474;2024-03-07T06:08:40;6.50;81.00
78028;DHT22;74605;45.864;11.474;2024-03-07T06:11:08;6.60;80.90
78028;DHT22;74605;45.864;11.474;2024-03-07T06:13:34;6.70;80.80
78028;DHT22;74605;45.864;11.474;2024-03-07T06:16:00;6.60;80.80
78028;DHT22;74605;45.864;11.474;2024-03-07T06:18:31;6.60;81.10
78028;DHT22;74605;45.864;11.474;2024-03-07T06:20:57;6.60;81.10
78028;DHT22;74605;45.864;11.474;2024-03-07T06:23:23;6.80;81.00
78028;DHT22;74605;45.864;11.474;2024-03-07T06:25:49;6.70;80.30
78028;DHT22;74605;45.864;11.474;2024-03-07T06:28:19;6.60;80.30
78028;DHT22;74605;45.864;11.474;2024-03-07T06:30:47;6.50;80.90
78028;DHT22;74605;45.864;11.474;2024-03-07T06:33:13;6.70;80.80
78028;DHT22;74605;45.864;11.474;2024-03-07T06:35:40;6.60;80.50
78028;DHT22;74605;45.864;11.474;2024-03-07T06:38:08;6.60;80.30
78028;DHT22;74605;45.864;11.474;2024-03-07T06:40:35;6.60;80.40
78028;DHT22;74605;45.864;11.474;2024-03-07T06:43:02;6.70;80.60
78028;DHT22;74605;45.864;11.474;2024-03-07T06:45:35;6.70;80.60
78028;DHT22;74605;45.864;11.474;2024-03-07T06:48:06;6.80;80.50
78028;DHT22;74605;45.864;11.474;2024-03-07T06:50:36;6.80;80.30
78028;DHT22;74605;45.864;11.474;2024-03-07T06:53:03;6.50;80.10
78028;DHT22;74605;45.864;11.474;2024-03-07T06:55:29;6.70;80.50
78028;DHT22;74605;45.864;11.474;2024-03-07T06:57:55;6.70;80.70
78028;DHT22;74605;45.864;11.474;2024-03-07T07:00:21;6.60;80.70
78028;DHT22;74605;45.864;11.474;2024-03-07T07:02:48;6.80;80.90
78028;DHT22;74605;45.864;11.474;2024-03-07T07:05:14;7.00;81.00
78028;DHT22;74605;45.864;11.474;2024-03-07T07:07:44;6.80;80.80
78028;DHT22;74605;45.864;11.474;2024-03-07T07:10:11;7.00;80.90
78028;DHT22;74605;45.864;11.474;2024-03-07T07:12:48;7.10;80.90
78028;DHT22;74605;45.864;11.474;2024-03-07T07:17:49;7.20;80.80
78028;DHT22;74605;45.864;11.474;2024-03-07T07:20:17;7.10;80.80
78028;DHT22;74605;45.864;11.474;2024-03-07T07:22:44;7.20;80.90
78028;DHT22;74605;45.864;11.474;2024-03-07T07:25:11;7.00;80.50
78028;DHT22;74605;45.864;11.474;2024-03-07T07:27:49;6.80;80.60
78028;DHT22;74605;45.864;11.474;2024-03-07T07:30:16;7.00;80.90
78028;DHT22;74605;45.864;11.474;2024-03-07T07:32:44;7.10;81.20
78028;DHT22;74605;45.864;11.474;2024-03-07T07:35:11;7.00;81.10
78028;DHT22;74605;45.864;11.474;2024-03-07T07:37:38;7.10;81.10
78028;DHT22;74605;45.864;11.474;2024-03-07T07:40:06;7.20;80.70
78028;DHT22;74605;45.864;11.474;2024-03-07T07:42:35;7.30;80.70
78028;DHT22;74605;45.864;11.474;2024-03-07T07:45:08;7.30;80.70
78028;DHT22;74605;45.864;11.474;2024-03-07T07:47:41;7.40;80.50
78028;DHT22;74605;45.864;11.474;2024-03-07T07:50:12;7.70;80.00
78028;DHT22;74605;45.864;11.474;2024-03-07T07:52:44;7.60;79.60
78028;DHT22;74605;45.864;11.474;2024-03-07T07:55:12;7.80;79.60
78028;DHT22;74605;45.864;11.474;2024-03-07T07:57:42;7.80;79.40
78028;DHT22;74605;45.864;11.474;2024-03-07T08:00:18;7.80;78.80
78028;DHT22;74605;45.864;11.474;2024-03-07T08:05:26;7.60;79.00
78028;DHT22;74605;45.864;11.474;2024-03-07T08:07:55;7.80;79.30
78028;DHT22;74605;45.864;11.474;2024-03-07T08:10:24;7.70;78.70
78028;DHT22;74605;45.864;11.474;2024-03-07T08:12:50;7.60;78.70
78028;DHT22;74605;45.864;11.474;2024-03-07T08:15:16;7.70;78.80
78028;DHT22;74605;45.864;11.474;2024-03-07T08:17:44;7.70;78.70
78028;DHT22;74605;45.864;11.474;2024-03-07T08:20:19;8.00;77.60
78028;DHT22;74605;45.864;11.474;2024-03-07T08:22:49;8.30;76.30
78028;DHT22;74605;45.864;11.474;2024-03-07T08:25:23;8.00;75.70
78028;DHT22;74605;45.864;11.474;2024-03-07T08:27:51;8.30;75.90
78028;DHT22;74605;45.864;11.474;2024-03-07T08:30:18;8.00;75.00
78028;DHT22;74605;45.864;11.474;2024-03-07T08:32:49;8.00;75.40
78028;DHT22;74605;45.864;11.474;2024-03-07T08:35:15;8.30;75.90
78028;DHT22;74605;45.864;11.474;2024-03-07T08:37:43;8.60;75.70
78028;DHT22;74605;45.864;11.474;2024-03-07T08:40:12;8.60;74.70
78028;DHT22;74605;45.864;11.474;2024-03-07T08:42:51;8.40;74.80
78028;DHT22;74605;45.864;11.474;2024-03-07T08:45:18;8.60;75.00
78028;DHT22;74605;45.864;11.474;2024-03-07T08:47:46;8.70;74.90
78028;DHT22;74605;45.864;11.474;2024-03-07T08:50:12;8.50;75.00
78028;DHT22;74605;45.864;11.474;2024-03-07T08:52:40;8.50;74.70
78028;DHT22;74605;45.864;11.474;2024-03-07T08:55:07;8.70;74.70
78028;DHT22;74605;45.864;11.474;2024-03-07T08:57:38;8.90;74.80
78028;DHT22;74605;45.864;11.474;2024-03-07T09:00:05;8.90;73.80
78028;DHT22;74605;45.864;11.474;2024-03-07T09:02:35;9.00;74.00
78028;DHT22;74605;45.864;11.474;2024-03-07T09:05:02;9.10;75.30
78028;DHT22;74605;45.864;11.474;2024-03-07T09:07:28;9.10;75.20
78028;DHT22;74605;45.864;11.474;2024-03-07T09:09:55;9.60;77.50
78028;DHT22;74605;45.864;11.474;2024-03-07T09:12:21;9.50;75.30
78028;DHT22;74605;45.864;11.474;2024-03-07T09:14:47;9.20;74.80
78028;DHT22;74605;45.864;11.474;2024-03-07T09:17:13;9.50;75.20
78028;DHT22;74605;45.864;11.474;2024-03-07T09:19:39;9.50;74.20
78028;DHT22;74605;45.864;11.474;2024-03-07T09:22:05;9.60;75.10
78028;DHT22;74605;45.864;11.474;2024-03-07T09:24:33;9.80;74.80
78028;DHT22;74605;45.864;11.474;2024-03-07T09:27:00;9.50;74.20
78028;DHT22;74605;45.864;11.474;2024-03-07T09:29:26;9.50;75.20
78028;DHT22;74605;45.864;11.474;2024-03-07T09:31:53;9.50;76.30
78028;DHT22;74605;45.864;11.474;2024-03-07T09:34:20;9.50;75.50
78028;DHT22;74605;45.864;11.474;2024-03-07T09:36:47;9.70;74.90
78028;DHT22;74605;45.864;11.474;2024-03-07T09:39:15;9.70;74.90
78028;DHT22;74605;45.864;11.474;2024-03-07T09:41:41;9.60;75.10
78028;DHT22;74605;45.864;11.474;2024-03-07T09:44:17;9.70;75.30
78028;DHT22;74605;45.864;11.474;2024-03-07T09:46:48;9.60;75.60
78028;DHT22;74605;45.864;11.474;2024-03-07T09:49:15;9.70;76.10
78028;DHT22;74605;45.864;11.474;2024-03-07T09:51:43;9.60;75.70
78028;DHT22;74605;45.864;11.474;2024-03-07T09:54:10;9.00;76.00
78028;DHT22;74605;45.864;11.474;2024-03-07T09:56:36;9.20;76.70
78028;DHT22;74605;45.864;11.474;2024-03-07T09:59:04;9.20;76.50
78028;DHT22;74605;45.864;11.474;2024-03-07T10:01:34;9.50;79.50
78028;DHT22;74605;45.864;11.474;2024-03-07T10:04:01;11.30;82.40
78028;DHT22;74605;45.864;11.474;2024-03-07T10:06:36;11.00;75.50
78028;DHT22;74605;45.864;11.474;2024-03-07T10:09:02;10.50;75.40
78028;DHT22;74605;45.864;11.474;2024-03-07T10:11:29;9.80;72.70
78028;DHT22;74605;45.864;11.474;2024-03-07T10:13:55;9.40;73.40
78028;DHT22;74605;45.864;11.474;2024-03-07T10:16:21;9.40;73.00
78028;DHT22;74605;45.864;11.474;2024-03-07T10:18:48;9.60;74.00
78028;DHT22;74605;45.864;11.474;2024-03-07T10:21:22;9.70;73.60
78028;DHT22;74605;45.864;11.474;2024-03-07T10:23:50;9.50;74.10
78028;DHT22;74605;45.864;11.474;2024-03-07T10:26:18;9.80;74.80
78028;DHT22;74605;45.864;11.474;2024-03-07T10:28:45;9.90;74.40
78028;DHT22;74605;45.864;11.474;2024-03-07T10:31:11;10.00;75.10
78028;DHT22;74605;45.864;11.474;2024-03-07T10:33:53;10.10;74.40
78028;DHT22;74605;45.864;11.474;2024-03-07T10:36:23;9.90;74.90
78028;DHT22;74605;45.864;11.474;2024-03-07T10:38:49;9.80;74.60
78028;DHT22;74605;45.864;11.474;2024-03-07T10:41:16;9.90;75.90
78028;DHT22;74605;45.864;11.474;2024-03-07T10:43:43;9.80;75.20
78028;DHT22;74605;45.864;11.474;2024-03-07T10:46:11;9.40;75.30
78028;DHT22;74605;45.864;11.474;2024-03-07T10:48:39;9.30;75.60
78028;DHT22;74605;45.864;11.474;2024-03-07T10:51:48;9.20;75.60
78028;DHT22;74605;45.864;11.474;2024-03-07T10:59:17;9.10;75.40
78028;DHT22;74605;45.864;11.474;2024-03-07T11:01:53;9.20;75.60
78028;DHT22;74605;45.864;11.474;2024-03-07T11:04:22;9.10;75.80
78028;DHT22;74605;45.864;11.474;2024-03-07T11:06:49;9.20;75.50
78028;DHT22;74605;45.864;11.474;2024-03-07T11:09:16;9.20;76.20
78028;DHT22;74605;45.864;11.474;2024-03-07T11:11:49;9.20;76.00
78028;DHT22;74605;45.864;11.474;2024-03-07T11:14:15;9.30;75.60
78028;DHT22;74605;45.864;11.474;2024-03-07T11:16:42;9.20;76.60
78028;DHT22;74605;45.864;11.474;2024-03-07T11:19:28;8.90;75.80
78028;DHT22;74605;45.864;11.474;2024-03-07T11:21:56;8.90;76.70
78028;DHT22;74605;45.864;11.474;2024-03-07T11:24:30;9.00;76.40
78028;DHT22;74605;45.864;11.474;2024-03-07T11:26:58;9.00;76.40
78028;DHT22;74605;45.864;11.474;2024-03-07T11:29:51;9.30;75.80
78028;DHT22;74605;45.864;11.474;2024-03-07T11:32:20;8.90;76.20
78028;DHT22;74605;45.864;11.474;2024-03-07T11:34:49;8.80;76.00
78028;DHT22;74605;45.864;11.474;2024-03-07T11:38:16;9.00;76.50
78028;DHT22;74605;45.864;11.474;2024-03-07T11:42:51;9.40;75.60
78028;DHT22;74605;45.864;11.474;2024-03-07T11:45:19;9.50;75.60
78028;DHT22;74605;45.864;11.474;2024-03-07T11:47:55;9.50;76.00
78028;DHT22;74605;45.864;11.474;2024-03-07T11:50:36;9.50;75.50
78028;DHT22;74605;45.864;11.474;2024-03-07T11:53:03;9.40;74.90
78028;DHT22;74605;45.864;11.474;2024-03-07T11:55:40;9.40;75.50
78028;DHT22;74605;45.864;11.474;2024-03-07T11:58:15;9.10;75.40
78028;DHT22;74605;45.864;11.474;2024-03-07T12:00:44;9.10;76.30
78028;DHT22;74605;45.864;11.474;2024-03-07T12:03:11;9.30;75.90
78028;DHT22;74605;45.864;11.474;2024-03-07T12:05:43;9.20;75.70
78028;DHT22;74605;45.864;11.474;2024-03-07T12:08:11;9.30;75.50
78028;DHT22;74605;45.864;11.474;2024-03-07T12:10:41;8.90;75.00
78028;DHT22;74605;45.864;11.474;2024-03-07T12:13:11;8.80;76.00
78028;DHT22;74605;45.864;11.474;2024-03-07T12:15:38;8.80;75.90
78028;DHT22;74605;45.864;11.474;2024-03-07T12:18:05;9.00;76.10
78028;DHT22;74605;45.864;11.474;2024-03-07T12:20:41;9.00;76.40
78028;DHT22;74605;45.864;11.474;2024-03-07T12:23:08;9.30;77.00
78028;DHT22;74605;45.864;11.474;2024-03-07T12:25:35;9.40;76.40
78028;DHT22;74605;45.864;11.474;2024-03-07T12:28:14;9.20;75.80
78028;DHT22;74605;45.864;11.474;2024-03-07T12:33:12;9.40;76.10
78028;DHT22;74605;45.864;11.474;2024-03-07T12:35:52;9.40;75.80
78028;DHT22;74605;45.864;11.474;2024-03-07T12:38:19;9.30;76.00
78028;DHT22;74605;45.864;11.474;2024-03-07T12:41:04;9.40;75.20
78028;DHT22;74605;45.864;11.474;2024-03-07T12:43:40;9.10;75.50
78028;DHT22;74605;45.864;11.474;2024-03-07T12:46:10;9.20;75.10
78028;DHT22;74605;45.864;11.474;2024-03-07T12:48:38;9.10;75.10
78028;DHT22;74605;45.864;11.474;2024-03-07T12:51:04;9.20;75.60
78028;DHT22;74605;45.864;11.474;2024-03-07T12:53:31;9.00;75.60
78028;DHT22;74605;45.864;11.474;2024-03-07T12:55:57;8.90;75.80
78028;DHT22;74605;45.864;11.474;2024-03-07T12:58:23;9.00;75.90
78028;DHT22;74605;45.864;11.474;2024-03-07T13:00:55;8.60;75.40
78028;DHT22;74605;45.864;11.474;2024-03-07T13:03:21;8.50;75.70
78028;DHT22;74605;45.864;11.474;2024-03-07T13:05:48;8.50;76.10
78028;DHT22;74605;45.864;11.474;2024-03-07T13:08:14;8.70;76.40
78028;DHT22;74605;45.864;11.474;2024-03-07T13:10:44;8.50;76.30
78028;DHT22;74605;45.864;11.474;2024-03-07T13:13:11;8.80;76.30
78028;DHT22;74605;45.864;11.474;2024-03-07T13:15:37;9.00;76.60
78028;DHT22;74605;45.864;11.474;2024-03-07T13:18:04;9.20;76.70
78028;DHT22;74605;45.864;11.474;2024-03-07T13:20:31;9.20;75.50
78028;DHT22;74605;45.864;11.474;2024-03-07T13:22:57;9.20;76.00
78028;DHT22;74605;45.864;11.474;2024-03-07T13:25:25;9.50;75.70
78028;DHT22;74605;45.864;11.474;2024-03-07T13:27:56;9.40;74.80
78028;DHT22;74605;45.864;11.474;2024-03-07T13:30:26;9.50;75.00
78028;DHT22;74605;45.864;11.474;2024-03-07T13:32:54;9.40;75.20
78028;DHT22;74605;45.864;11.474;2024-03-07T13:35:20;9.20;74.70
78028;DHT22;74605;45.864;11.474;2024-03-07T13:37:48;9.00;74.60
78028;DHT22;74605;45.864;11.474;2024-03-07T13:40:14;8.80;75.00
78028;DHT22;74605;45.864;11.474;2024-03-07T13:42:57;8.70;74.80
78028;DHT22;74605;45.864;11.474;2024-03-07T13:45:27;8.50;73.90
78028;DHT22;74605;45.864;11.474;2024-03-07T13:47:54;8.20;74.20
78028;DHT22;74605;45.864;11.474;2024-03-07T13:50:22;8.40;73.20
78028;DHT22;74605;45.864;11.474;2024-03-07T13:52:51;8.30;73.70
78028;DHT22;74605;45.864;11.474;2024-03-07T13:55:35;9.20;72.50
78028;DHT22;74605;45.864;11.474;2024-03-07T13:58:09;8.50;72.40
78028;DHT22;74605;45.864;11.474;2024-03-07T14:06:50;8.30;72.30
78028;DHT22;74605;45.864;11.474;2024-03-07T14:21:41;8.20;73.00
78028;DHT22;74605;45.864;11.474;2024-03-07T14:32:58;8.90;73.30
78028;DHT22;74605;45.864;11.474;2024-03-07T14:40:48;8.80;73.80
78028;DHT22;74605;45.864;11.474;2024-03-07T14:43:16;8.80;72.30
78028;DHT22;74605;45.864;11.474;2024-03-07T14:45:43;8.80;73.10
78028;DHT22;74605;45.864;11.474;2024-03-07T14:48:11;8.90;73.90
78028;DHT22;74605;45.864;11.474;2024-03-07T14:50:42;8.80;73.60
78028;DHT22;74605;45.864;11.474;2024-03-07T14:53:08;8.90;74.00
78028;DHT22;74605;45.864;11.474;2024-03-07T14:55:35;9.00;73.40
78028;DHT22;74605;45.864;11.474;2024-03-07T14:58:02;9.10;73.60
78028;DHT22;74605;45.864;11.474;2024-03-07T15:00:29;9.20;73.40
78028;DHT22;74605;45.864;11.474;2024-03-07T15:02:59;9.20;74.40
78028;DHT22;74605;45.864;11.474;2024-03-07T15:05:26;9.10;74.30
78028;DHT22;74605;45.864;11.474;2024-03-07T15:07:53;9.10;74.20
78028;DHT22;74605;45.864;11.474;2024-03-07T15:10:31;9.10;73.70
78028;DHT22;74605;45.864;11.474;2024-03-07T15:12:57;9.00;73.80
78028;DHT22;74605;45.864;11.474;2024-03-07T15:15:23;9.00;73.90
78028;DHT22;74605;45.864;11.474;2024-03-07T15:17:57;9.00;74.00
78028;DHT22;74605;45.864;11.474;2024-03-07T15:20:23;8.90;74.20
78028;DHT22;74605;45.864;11.474;2024-03-07T15:25:15;9.00;74.30
78028;DHT22;74605;45.864;11.474;2024-03-07T15:27:44;9.10;74.20
78028;DHT22;74605;45.864;11.474;2024-03-07T15:30:11;9.20;74.30
78028;DHT22;74605;45.864;11.474;2024-03-07T15:32:43;9.40;74.40
78028;DHT22;74605;45.864;11.474;2024-03-07T15:35:10;9.30;74.00
78028;DHT22;74605;45.864;11.474;2024-03-07T15:37:56;9.40;74.30
78028;DHT22;74605;45.864;11.474;2024-03-07T15:40:22;9.70;73.80
78028;DHT22;74605;45.864;11.474;2024-03-07T15:42:50;9.70;74.10
78028;DHT22;74605;45.864;11.474;2024-03-07T15:45:19;9.20;74.10
78028;DHT22;74605;45.864;11.474;2024-03-07T15:47:49;9.50;75.20
78028;DHT22;74605;45.864;11.474;2024-03-07T15:50:16;9.40;73.80
78028;DHT22;74605;45.864;11.474;2024-03-07T15:52:45;9.40;75.50
78028;DHT22;74605;45.864;11.474;2024-03-07T15:55:12;9.20;73.20
78028;DHT22;74605;45.864;11.474;2024-03-07T15:58:01;9.20;74.50
78028;DHT22;74605;45.864;11.474;2024-03-07T16:00:30;8.90;73.90
78028;DHT22;74605;45.864;11.474;2024-03-07T16:03:02;8.90;73.80
78028;DHT22;74605;45.864;11.474;2024-03-07T16:05:30;9.00;74.40
78028;DHT22;74605;45.864;11.474;2024-03-07T16:07:58;9.20;74.20
78028;DHT22;74605;45.864;11.474;2024-03-07T16:10:30;9.10;74.00
78028;DHT22;74605;45.864;11.474;2024-03-07T16:13:01;9.00;74.10
78028;DHT22;74605;45.864;11.474;2024-03-07T16:15:28;9.10;74.30
78028;DHT22;74605;45.864;11.474;2024-03-07T16:17:55;9.10;73.90
78028;DHT22;74605;45.864;11.474;2024-03-07T16:20:28;9.10;74.80
78028;DHT22;74605;45.864;11.474;2024-03-07T16:22:54;9.20;74.40
78028;DHT22;74605;45.864;11.474;2024-03-07T16:25:21;9.30;74.80
78028;DHT22;74605;45.864;11.474;2024-03-07T16:27:48;9.00;73.50